Time;durP1;ratioP1;P1;durP2;ratioP2;P2;SDS_P1;SDS_P2;PMS_P1;PMS_P2;Temp;Humidity;BMP_temperature;BMP_pressure;BME280_temperature;BME280_humidity;BME280_pressure;Samples;Min_cycle;Max_cycle;Signal;HPM_P1;HPM_P2
2020/12/06 00:01:28;;;;;;;36.10;16.70;;;2.00;99.90;;;;;;5050312;28;22031;-50
2020/12/06 00:03:55;;;;;;;29.30;15.63;;;2.00;99.90;;;;;;5050300;28;20479;-49
2020/12/06 00:06:22;;;;;;;26.60;14.40;;;2.00;99.90;;;;;;5049924;28;20520;-50
2020/12/06 00:08:49;;;;;;;27.33;14.33;;;2.10;99.90;;;;;;5050177;28;20464;-50
2020/12/06 00:11:16;;;;;;;28.73;14.73;;;2.00;99.90;;;;;;5050342;28;20531;-50
2020/12/06 00:13:43;;;;;;;30.83;16.40;;;2.00;99.90;;;;;;5050183;28;20517;-49
2020/12/06 00:16:12;;;;;;;28.87;15.50;;;2.00;99.90;;;;;;5049996;28;20452;-48
2020/12/06 00:18:38;;;;;;;29.50;16.43;;;2.10;99.90;;;;;;5050264;28;20444;-50
2020/12/06 00:21:06;;;;;;;30.50;16.53;;;2.10;99.90;;;;;;5049973;28;20555;-49
2020/12/06 00:23:33;;;;;;;26.60;14.97;;;2.10;99.90;;;;;;5050183;28;20525;-49
2020/12/06 00:25:59;;;;;;;29.20;15.97;;;2.10;99.90;;;;;;5050352;28;20509;-50
2020/12/06 00:28:25;;;;;;;28.90;16.60;;;2.10;99.90;;;;;;5049948;28;20509;-50
2020/12/06 00:30:52;;;;;;;29.80;15.90;;;2.10;99.90;;;;;;5050047;28;20451;-50
2020/12/06 00:33:18;;;;;;;37.47;18.43;;;2.20;99.90;;;;;;5050170;28;20466;-49
2020/12/06 00:35:45;;;;;;;31.50;17.27;;;2.30;99.90;;;;;;5050185;28;20505;-49
2020/12/06 00:38:12;;;;;;;28.73;17.27;;;2.30;99.90;;;;;;5049448;28;20851;-50
2020/12/06 00:40:39;;;;;;;30.23;16.23;;;2.40;99.90;;;;;;5032527;28;21256;-49
2020/12/06 00:43:05;;;;;;;25.70;15.13;;;2.30;99.90;;;;;;5034184;28;20455;-50
2020/12/06 00:45:32;;;;;;;26.83;15.17;;;2.20;99.90;;;;;;5049955;28;20452;-50
2020/12/06 00:47:58;;;;;;;28.17;16.20;;;2.20;99.90;;;;;;5049848;28;20557;-50
2020/12/06 00:50:25;;;;;;;27.00;15.37;;;2.30;99.90;;;;;;5049845;28;20439;-49
2020/12/06 00:52:51;;;;;;;28.80;14.70;;;2.20;99.90;;;;;;5084433;22;20554;-53
2020/12/06 00:55:19;;;;;;;27.70;15.03;;;2.10;99.90;;;;;;5090026;28;20506;-53
2020/12/06 00:57:45;;;;;;;23.60;12.90;;;2.00;99.90;;;;;;5090209;28;20449;-54
2020/12/06 01:00:12;;;;;;;26.90;14.33;;;1.90;99.90;;;;;;5090053;28;20867;-53
2020/12/06 01:02:39;;;;;;;28.90;14.77;;;1.90;99.90;;;;;;5085964;28;20462;-53
2020/12/06 01:05:06;;;;;;;23.30;13.17;;;2.00;99.90;;;;;;5069247;28;20458;-53
2020/12/06 01:07:35;;;;;;;22.33;12.43;;;2.10;99.90;;;;;;5069508;28;20454;-53
2020/12/06 01:10:02;;;;;;;22.07;12.10;;;2.20;99.90;;;;;;5069626;28;20462;-53
2020/12/06 01:12:29;;;;;;;23.60;12.33;;;2.20;99.90;;;;;;5074019;28;20461;-53
2020/12/06 01:14:56;;;;;;;22.70;12.37;;;2.30;99.90;;;;;;5073386;28;20943;-53
2020/12/06 01:17:22;;;;;;;19.63;11.77;;;2.20;99.90;;;;;;5073330;28;20477;-53
2020/12/06 01:19:49;;;;;;;22.60;12.30;;;2.10;99.90;;;;;;5072828;28;20547;-53
2020/12/06 01:22:15;;;;;;;23.40;12.00;;;2.10;99.90;;;;;;5072684;28;21009;-53
2020/12/06 01:24:42;;;;;;;21.40;12.13;;;1.80;99.90;;;;;;5071703;28;20508;-53
2020/12/06 01:27:08;;;;;;;25.90;12.93;;;1.70;99.90;;;;;;5073394;28;20465;-53
2020/12/06 01:29:35;;;;;;;29.27;14.13;;;1.80;99.90;;;;;;5073149;28;20450;-53
2020/12/06 01:32:02;;;;;;;29.37;15.30;;;1.70;99.90;;;;;;5073173;28;20494;-53
2020/12/06 01:34:28;;;;;;;29.10;15.00;;;1.60;99.90;;;;;;5072469;28;20473;-53
2020/12/06 01:36:55;;;;;;;27.67;16.00;;;1.60;99.90;;;;;;5072306;28;20454;-53
2020/12/06 01:39:21;;;;;;;29.73;15.13;;;1.50;99.90;;;;;;5072141;28;20458;-53
2020/12/06 01:41:48;;;;;;;29.40;15.73;;;1.50;99.90;;;;;;5072761;28;20454;-54
2020/12/06 01:44:14;;;;;;;30.83;15.60;;;1.60;99.90;;;;;;5073031;28;20520;-53
2020/12/06 01:46:42;;;;;;;29.70;15.70;;;1.80;99.90;;;;;;5072376;28;20865;-54
2020/12/06 01:49:09;;;;;;;28.33;15.30;;;1.80;99.90;;;;;;5072930;28;20861;-53
2020/12/06 01:51:36;;;;;;;30.83;15.23;;;1.90;99.90;;;;;;5072785;28;20524;-53
2020/12/06 01:54:04;;;;;;;26.73;15.10;;;1.90;99.90;;;;;;5072793;28;20721;-53
2020/12/06 01:56:31;;;;;;;31.30;16.00;;;1.90;99.90;;;;;;5072843;28;20482;-53
2020/12/06 01:59:01;;;;;;;28.30;15.00;;;1.90;99.90;;;;;;5072634;28;20453;-53
2020/12/06 02:01:27;;;;;;;26.57;14.30;;;1.80;99.90;;;;;;5071682;28;20478;-53
2020/12/06 02:03:55;;;;;;;26.70;14.93;;;1.90;99.90;;;;;;5071719;28;20473;-53
2020/12/06 02:06:21;;;;;;;28.37;14.57;;;2.00;99.90;;;;;;5066483;28;20455;-53
2020/12/06 02:08:48;;;;;;;30.60;15.93;;;2.10;99.90;;;;;;5072098;28;20450;-54
2020/12/06 02:11:28;;;;;;;23.37;13.53;;;2.20;99.90;;;;;;5072287;28;20614;-53
2020/12/06 02:13:58;;;;;;;26.30;13.83;;;2.20;99.90;;;;;;5072264;28;20501;-53
2020/12/06 02:16:25;;;;;;;24.90;13.60;;;2.40;99.90;;;;;;5071748;28;20447;-53
2020/12/06 02:18:53;;;;;;;24.80;13.23;;;2.20;99.90;;;;;;5071926;28;20508;-53
2020/12/06 02:21:20;;;;;;;24.10;12.57;;;2.20;99.90;;;;;;5069736;28;20482;-53
2020/12/06 02:23:47;;;;;;;20.90;11.53;;;2.00;99.90;;;;;;5071542;28;20592;-53
2020/12/06 02:26:13;;;;;;;21.23;11.03;;;2.00;99.90;;;;;;5071328;28;20454;-53
2020/12/06 02:28:40;;;;;;;18.40;10.90;;;1.90;99.90;;;;;;5071993;28;20454;-53
2020/12/06 02:31:06;;;;;;;21.97;11.67;;;2.00;99.90;;;;;;5071643;28;20500;-53
2020/12/06 02:33:37;;;;;;;21.47;11.67;;;2.00;99.90;;;;;;5071800;28;20502;-53
2020/12/06 02:36:04;;;;;;;19.13;10.47;;;2.10;99.90;;;;;;5071111;28;20447;-52
2020/12/06 02:38:31;;;;;;;20.50;11.03;;;2.00;99.90;;;;;;5071263;28;20451;-53
2020/12/06 02:40:58;;;;;;;20.13;10.63;;;2.10;99.90;;;;;;5071759;28;20486;-53
2020/12/06 02:43:24;;;;;;;20.90;11.07;;;2.00;99.90;;;;;;5071273;28;20483;-53
2020/12/06 02:45:51;;;;;;;23.97;12.20;;;2.10;99.90;;;;;;5071329;28;20450;-53
2020/12/06 02:48:17;;;;;;;20.30;11.00;;;2.00;99.90;;;;;;5071094;28;20469;-53
2020/12/06 02:50:44;;;;;;;24.50;11.90;;;2.00;99.90;;;;;;5071005;28;20458;-53
2020/12/06 02:53:10;;;;;;;21.50;11.50;;;2.00;99.90;;;;;;5070589;28;20482;-53
2020/12/06 02:55:37;;;;;;;23.00;11.17;;;2.00;99.90;;;;;;5071044;28;20956;-53
2020/12/06 02:58:04;;;;;;;23.30;10.90;;;2.10;99.90;;;;;;5071265;28;20454;-53
2020/12/06 03:00:30;;;;;;;19.20;9.97;;;2.10;99.90;;;;;;5070984;28;20852;-53
2020/12/06 03:02:57;;;;;;;19.40;10.27;;;2.10;99.90;;;;;;5071038;28;20474;-53
2020/12/06 03:05:24;;;;;;;18.20;10.50;;;2.10;99.90;;;;;;5070495;28;20970;-53
2020/12/06 03:07:50;;;;;;;16.90;9.80;;;1.90;99.90;;;;;;5069460;28;20504;-53
2020/12/06 03:10:16;;;;;;;21.10;11.70;;;1.80;99.90;;;;;;5069372;28;20952;-53
2020/12/06 03:12:44;;;;;;;24.23;12.13;;;1.80;99.90;;;;;;5070896;28;20474;-54
2020/12/06 03:15:10;;;;;;;25.13;12.70;;;1.80;99.90;;;;;;5070951;28;20493;-53
2020/12/06 03:17:37;;;;;;;19.13;10.53;;;1.80;99.90;;;;;;5070815;28;20816;-53
2020/12/06 03:20:04;;;;;;;19.30;10.33;;;1.80;99.90;;;;;;5070867;28;20501;-53
2020/12/06 03:22:33;;;;;;;21.57;11.17;;;1.80;99.90;;;;;;5070529;28;20512;-53
2020/12/06 03:25:01;;;;;;;20.00;11.30;;;1.90;99.90;;;;;;5070292;28;20512;-54
2020/12/06 03:27:27;;;;;;;19.87;10.73;;;2.10;99.90;;;;;;5070633;28;20485;-53
2020/12/06 03:29:56;;;;;;;15.27;9.03;;;2.00;99.90;;;;;;5070303;28;20516;-53
2020/12/06 03:32:22;;;;;;;19.60;9.63;;;2.10;99.90;;;;;;5069832;28;20658;-53
2020/12/06 03:34:49;;;;;;;16.00;9.60;;;2.20;99.90;;;;;;5069740;28;20981;-53
2020/12/06 03:37:16;;;;;;;17.17;9.30;;;2.10;99.90;;;;;;5070136;28;20453;-54
2020/12/06 03:39:43;;;;;;;19.40;10.17;;;2.00;99.90;;;;;;5070227;28;20447;-53
2020/12/06 03:42:12;;;;;;;15.03;8.70;;;2.10;99.90;;;;;;5070120;28;20447;-53
2020/12/06 03:44:38;;;;;;;13.80;8.20;;;2.00;99.90;;;;;;5070445;28;21132;-53
2020/12/06 03:47:05;;;;;;;15.37;8.97;;;2.10;99.90;;;;;;5069923;28;20959;-54
2020/12/06 03:49:32;;;;;;;14.33;8.30;;;2.10;99.90;;;;;;5069927;28;20439;-54
2020/12/06 03:51:59;;;;;;;13.63;8.37;;;2.10;99.90;;;;;;5068970;28;20462;-54
2020/12/06 03:54:25;;;;;;;15.33;8.77;;;2.10;99.90;;;;;;5070100;28;20489;-53
2020/12/06 03:56:52;;;;;;;13.90;8.27;;;2.20;99.90;;;;;;5070332;28;20797;-53
2020/12/06 03:59:18;;;;;;;12.07;7.17;;;2.20;99.90;;;;;;5070600;28;20496;-53
2020/12/06 04:01:44;;;;;;;13.47;7.93;;;2.30;99.90;;;;;;5069910;28;20479;-53
2020/12/06 04:04:12;;;;;;;12.80;7.73;;;2.40;99.90;;;;;;5070032;28;20512;-53
2020/12/06 04:06:38;;;;;;;15.90;8.47;;;2.40;99.90;;;;;;5069809;28;20504;-53
2020/12/06 04:09:05;;;;;;;12.30;6.90;;;2.50;99.90;;;;;;5070393;28;20824;-53
2020/12/06 04:11:31;;;;;;;14.60;8.03;;;2.50;99.90;;;;;;5070532;28;20447;-53
2020/12/06 04:13:58;;;;;;;11.90;7.10;;;2.30;99.90;;;;;;5070408;28;20531;-53
2020/12/06 04:16:25;;;;;;;15.80;8.40;;;2.30;99.90;;;;;;5050354;28;21019;-54
2020/12/06 04:18:51;;;;;;;13.70;8.63;;;2.40;99.90;;;;;;5067930;28;20451;-53
2020/12/06 04:21:19;;;;;;;13.60;8.17;;;2.50;99.90;;;;;;5069949;28;21003;-53
2020/12/06 04:23:45;;;;;;;18.33;9.47;;;2.50;99.90;;;;;;5070468;28;20478;-53
2020/12/06 04:26:12;;;;;;;15.23;9.00;;;2.40;99.90;;;;;;5070331;28;20450;-53
2020/12/06 04:28:38;;;;;;;14.40;8.53;;;2.40;99.90;;;;;;5069989;28;20944;-54
2020/12/06 04:31:05;;;;;;;15.70;8.93;;;2.40;99.90;;;;;;5069520;28;20458;-53
2020/12/06 04:33:31;;;;;;;16.67;9.30;;;2.40;99.90;;;;;;5070672;28;20523;-53
2020/12/06 04:35:58;;;;;;;15.07;9.27;;;2.40;99.90;;;;;;5070220;28;20450;-53
2020/12/06 04:38:25;;;;;;;16.63;9.47;;;2.30;99.90;;;;;;5070381;28;20508;-53
2020/12/06 04:40:52;;;;;;;17.60;9.40;;;2.40;99.90;;;;;;5070402;28;20487;-53
2020/12/06 04:43:19;;;;;;;18.93;9.57;;;2.30;99.90;;;;;;5070252;28;20467;-53
2020/12/06 04:45:46;;;;;;;18.10;9.67;;;2.30;99.90;;;;;;5073012;28;20454;-53
2020/12/06 04:48:27;;;;;;;20.13;10.03;;;2.30;99.90;;;;;;5073903;28;20454;-53
2020/12/06 04:50:56;;;;;;;15.83;9.67;;;2.40;99.90;;;;;;5054124;28;20888;-53
2020/12/06 04:53:29;;;;;;;17.07;8.87;;;2.50;99.90;;;;;;5071888;28;20565;-53
2020/12/06 04:55:57;;;;;;;16.47;9.47;;;2.50;99.90;;;;;;5073804;28;20466;-53
2020/12/06 04:58:27;;;;;;;16.67;9.43;;;2.50;99.90;;;;;;5066348;28;20513;-53
2020/12/06 05:00:53;;;;;;;17.73;9.60;;;2.50;99.90;;;;;;5072859;28;20528;-53
2020/12/06 05:03:23;;;;;;;20.40;10.83;;;2.30;99.90;;;;;;5074025;28;20462;-53
2020/12/06 05:05:50;;;;;;;19.33;10.47;;;2.30;99.90;;;;;;5073630;28;20960;-53
2020/12/06 05:08:20;;;;;;;20.73;11.40;;;2.30;99.90;;;;;;5053882;28;20949;-53
2020/12/06 05:10:48;;;;;;;19.43;10.80;;;2.20;99.90;;;;;;5063170;28;20455;-53
2020/12/06 05:13:16;;;;;;;21.17;11.60;;;2.60;99.90;;;;;;5073701;28;20540;-53
2020/12/06 05:15:42;;;;;;;21.57;11.30;;;2.70;99.90;;;;;;5073233;28;20450;-53
2020/12/06 05:18:09;;;;;;;20.60;11.03;;;2.50;99.90;;;;;;5073526;28;20438;-53
2020/12/06 05:20:37;;;;;;;21.10;11.83;;;2.30;99.90;;;;;;5072838;28;20967;-53
2020/12/06 05:23:04;;;;;;;21.20;10.77;;;2.40;99.90;;;;;;5072969;28;20520;-54
2020/12/06 05:25:30;;;;;;;20.50;11.20;;;2.30;99.90;;;;;;5073435;28;20450;-53
2020/12/06 05:27:58;;;;;;;20.23;10.90;;;2.30;99.90;;;;;;5060313;28;20447;-53
2020/12/06 05:30:24;;;;;;;19.00;10.87;;;2.40;99.90;;;;;;5072460;28;20793;-53
2020/12/06 05:32:51;;;;;;;19.47;10.90;;;2.40;99.90;;;;;;5073298;28;20463;-54
2020/12/06 05:35:20;;;;;;;18.43;10.67;;;2.40;99.90;;;;;;5072872;28;20458;-53
2020/12/06 05:37:49;;;;;;;18.10;10.73;;;2.50;99.90;;;;;;5072935;28;20458;-53
2020/12/06 05:40:17;;;;;;;15.67;9.07;;;2.60;99.90;;;;;;5073415;28;20478;-53
2020/12/06 05:42:44;;;;;;;18.50;10.40;;;2.60;99.90;;;;;;5072336;28;20471;-53
2020/12/06 05:45:13;;;;;;;15.47;9.57;;;2.60;99.90;;;;;;5071339;28;20458;-53
2020/12/06 05:47:40;;;;;;;19.90;10.60;;;2.60;99.90;;;;;;5073114;28;20796;-53
2020/12/06 05:50:07;;;;;;;19.50;10.07;;;2.70;99.90;;;;;;5072655;28;20932;-53
2020/12/06 05:52:35;;;;;;;16.43;9.97;;;2.70;99.90;;;;;;5064194;28;20482;-53
2020/12/06 05:55:02;;;;;;;18.13;10.00;;;2.80;99.90;;;;;;5053218;28;20451;-54
2020/12/06 05:57:31;;;;;;;14.40;8.60;;;2.80;99.90;;;;;;5070234;28;20964;-53
2020/12/06 06:00:00;;;;;;;16.03;9.40;;;2.80;99.90;;;;;;5071952;28;20454;-53
2020/12/06 06:02:28;;;;;;;17.97;10.00;;;2.80;99.90;;;;;;5072521;28;20459;-54
2020/12/06 06:05:04;;;;;;;15.20;8.80;;;2.80;99.90;;;;;;5072788;28;20873;-53
2020/12/06 06:07:32;;;;;;;16.63;9.83;;;2.80;99.90;;;;;;5072122;28;20476;-53
2020/12/06 06:10:03;;;;;;;15.07;8.50;;;2.60;99.90;;;;;;5060322;28;20462;-53
2020/12/06 06:12:32;;;;;;;15.90;9.07;;;2.60;99.90;;;;;;5052778;28;20470;-53
2020/12/06 06:15:01;;;;;;;17.80;9.37;;;2.70;99.90;;;;;;5057517;28;20465;-53
2020/12/06 06:17:29;;;;;;;17.00;9.80;;;2.80;99.90;;;;;;5051886;28;20440;-53
2020/12/06 06:19:57;;;;;;;15.63;9.80;;;2.70;99.90;;;;;;5051695;28;20436;-53
2020/12/06 06:22:29;;;;;;;16.97;10.00;;;2.70;99.90;;;;;;5057537;28;20452;-52
2020/12/06 06:24:56;;;;;;;20.30;10.87;;;2.50;99.90;;;;;;5066905;28;20512;-53
2020/12/06 06:27:23;;;;;;;19.40;10.23;;;2.50;99.90;;;;;;5059648;28;20868;-53
2020/12/06 06:29:50;;;;;;;19.40;11.27;;;2.60;99.90;;;;;;5061051;28;20450;-53
2020/12/06 06:32:19;;;;;;;18.00;10.20;;;2.50;99.90;;;;;;5070316;28;20525;-53
2020/12/06 06:34:47;;;;;;;16.80;9.90;;;2.60;99.90;;;;;;5066774;28;20523;-53
2020/12/06 06:37:15;;;;;;;17.73;9.90;;;2.70;99.90;;;;;;5070045;28;20538;-53
2020/12/06 06:39:43;;;;;;;19.00;10.87;;;2.80;99.90;;;;;;5069864;28;20431;-53
2020/12/06 06:42:12;;;;;;;17.53;10.10;;;2.80;99.90;;;;;;5069737;28;20489;-53
2020/12/06 06:44:40;;;;;;;18.50;11.00;;;2.90;99.90;;;;;;5069995;28;20963;-53
2020/12/06 06:47:09;;;;;;;19.73;10.80;;;2.90;99.90;;;;;;5055291;28;20439;-53
2020/12/06 06:49:51;;;;;;;18.20;10.73;;;2.90;99.90;;;;;;5058183;28;20438;-54
2020/12/06 06:52:18;;;;;;;19.33;10.90;;;3.00;99.90;;;;;;5062342;28;20428;-53
2020/12/06 06:54:48;;;;;;;21.83;11.70;;;2.80;99.90;;;;;;5067109;28;20446;-53
2020/12/06 06:57:17;;;;;;;20.53;11.93;;;2.60;99.90;;;;;;5063950;28;20442;-53
2020/12/06 06:59:46;;;;;;;16.73;10.70;;;2.60;99.90;;;;;;5062400;28;20903;-53
2020/12/06 07:02:30;;;;;;;16.57;10.30;;;2.70;99.90;;;;;;5061385;28;20487;-53
2020/12/06 07:04:58;;;;;;;17.07;10.13;;;2.80;99.90;;;;;;5058279;28;20447;-53
2020/12/06 07:07:44;;;;;;;15.70;9.90;;;2.90;99.90;;;;;;5068889;28;20439;-53
2020/12/06 07:10:13;;;;;;;17.47;10.70;;;2.90;99.90;;;;;;5069189;28;20439;-53
2020/12/06 07:12:48;;;;;;;17.70;10.63;;;2.90;99.90;;;;;;5069191;28;20840;-53
2020/12/06 07:15:16;;;;;;;17.40;10.23;;;2.80;99.90;;;;;;5058336;28;20454;-53
2020/12/06 07:17:44;;;;;;;21.53;10.60;;;2.70;99.90;;;;;;5053670;28;20444;-54
2020/12/06 07:20:13;;;;;;;24.33;12.30;;;2.80;99.90;;;;;;5069336;28;20454;-53
2020/12/06 07:22:41;;;;;;;21.90;11.40;;;2.70;99.90;;;;;;5069326;28;20512;-53
2020/12/06 07:25:10;;;;;;;20.70;11.33;;;2.60;99.90;;;;;;5069240;28;20445;-53
2020/12/06 07:27:36;;;;;;;23.10;11.80;;;2.80;99.90;;;;;;5069107;28;20439;-53
2020/12/06 07:30:05;;;;;;;19.90;11.23;;;2.90;99.90;;;;;;5069185;28;20436;-54
2020/12/06 07:32:32;;;;;;;20.70;11.77;;;3.00;99.90;;;;;;5068847;28;20463;-53
2020/12/06 07:34:59;;;;;;;23.77;12.77;;;3.10;99.90;;;;;;5068670;28;20476;-53
2020/12/06 07:37:26;;;;;;;21.20;12.30;;;3.10;99.90;;;;;;5068388;28;20451;-53
2020/12/06 07:39:53;;;;;;;21.83;12.07;;;3.10;99.90;;;;;;5050225;28;20488;-53
2020/12/06 07:42:20;;;;;;;22.40;11.27;;;3.10;99.90;;;;;;5049959;28;20486;-53
2020/12/06 07:44:48;;;;;;;20.70;11.27;;;3.20;99.90;;;;;;5050272;28;20717;-53
2020/12/06 07:47:15;;;;;;;21.17;11.67;;;3.20;99.90;;;;;;5050504;28;20443;-53
2020/12/06 07:49:43;;;;;;;20.47;11.03;;;3.10;99.90;;;;;;5051943;28;20444;-53
2020/12/06 07:52:17;;;;;;;21.07;11.40;;;3.10;99.90;;;;;;5050392;28;20436;-53
2020/12/06 07:54:55;;;;;;;21.57;11.40;;;3.10;99.90;;;;;;5053114;28;20866;-53
2020/12/06 07:57:29;;;;;;;24.60;12.10;;;3.10;99.90;;;;;;5050189;28;20550;-53
2020/12/06 07:59:57;;;;;;;23.37;12.23;;;3.20;99.90;;;;;;5076077;22;20501;-48
2020/12/06 08:02:24;;;;;;;21.83;12.80;;;3.20;99.90;;;;;;5077166;28;20502;-48
2020/12/06 08:04:53;;;;;;;20.73;12.30;;;3.20;99.90;;;;;;5070274;28;20442;-49
2020/12/06 08:07:27;;;;;;;21.70;13.23;;;3.10;99.90;;;;;;5070797;28;20851;-49
2020/12/06 08:09:57;;;;;;;24.20;13.40;;;3.10;99.90;;;;;;5070492;28;20439;-49
2020/12/06 08:12:25;;;;;;;27.90;14.30;;;3.10;99.90;;;;;;5069895;28;20532;-49
2020/12/06 08:15:00;;;;;;;21.30;12.37;;;3.10;99.90;;;;;;5069474;28;20808;-49
2020/12/06 08:17:26;;;;;;;16.67;10.40;;;3.30;99.90;;;;;;5069199;28;20895;-49
2020/12/06 08:19:53;;;;;;;18.30;11.13;;;3.20;99.90;;;;;;5072883;28;20445;-49
2020/12/06 08:22:19;;;;;;;19.10;10.13;;;3.30;99.90;;;;;;5076044;28;20478;-49
2020/12/06 08:24:46;;;;;;;15.20;8.93;;;3.20;99.90;;;;;;5061794;28;20971;-49
2020/12/06 08:27:21;;;;;;;15.27;9.70;;;3.30;99.90;;;;;;5073111;28;20454;-49
2020/12/06 08:29:47;;;;;;;15.73;9.40;;;3.20;99.90;;;;;;5066576;28;20477;-48
2020/12/06 08:32:14;;;;;;;16.00;9.33;;;3.30;99.90;;;;;;5076698;28;20518;-49
2020/12/06 08:34:54;;;;;;;18.17;10.67;;;3.30;99.90;;;;;;5075980;28;20438;-49
2020/12/06 08:37:21;;;;;;;19.20;10.33;;;3.10;99.90;;;;;;5076008;28;20466;-49
2020/12/06 08:39:48;;;;;;;18.50;10.83;;;3.10;99.90;;;;;;5074959;28;20462;-49
2020/12/06 08:42:20;;;;;;;17.63;10.57;;;3.10;99.90;;;;;;5075042;28;20505;-49
2020/12/06 08:44:57;;;;;;;17.63;9.83;;;3.10;99.90;;;;;;5063375;28;20447;-49
2020/12/06 08:47:26;;;;;;;18.67;11.07;;;3.10;99.90;;;;;;5070513;28;20999;-49
2020/12/06 08:50:06;;;;;;;16.37;10.03;;;3.10;99.90;;;;;;5056579;28;20439;-49
2020/12/06 08:52:33;;;;;;;16.83;9.73;;;3.00;99.90;;;;;;5057135;28;20924;-49
2020/12/06 08:54:59;;;;;;;15.03;8.80;;;2.90;99.90;;;;;;5063969;28;20503;-48
2020/12/06 08:57:27;;;;;;;17.47;10.27;;;3.10;99.90;;;;;;5056226;28;20975;-49
2020/12/06 08:59:54;;;;;;;18.67;11.53;;;3.10;99.90;;;;;;5055685;28;20527;-49
2020/12/06 09:02:23;;;;;;;19.50;11.50;;;3.10;99.90;;;;;;5056414;28;20472;-49
2020/12/06 09:04:50;;;;;;;22.17;10.37;;;3.20;99.90;;;;;;5059862;28;20455;-49
2020/12/06 09:07:17;;;;;;;21.47;10.83;;;3.10;99.90;;;;;;5071223;28;20438;-49
2020/12/06 09:09:44;;;;;;;17.37;10.53;;;3.10;99.90;;;;;;5075058;28;20512;-49
2020/12/06 09:12:10;;;;;;;17.43;10.23;;;3.20;99.90;;;;;;5075370;28;20461;-49
2020/12/06 09:14:38;;;;;;;18.63;10.40;;;3.30;99.90;;;;;;5074940;28;20442;-49
2020/12/06 09:17:05;;;;;;;16.90;10.20;;;3.30;99.90;;;;;;5074508;28;20442;-49
2020/12/06 09:19:31;;;;;;;14.80;9.00;;;3.30;99.90;;;;;;5074585;28;20446;-49
2020/12/06 09:21:58;;;;;;;16.00;8.90;;;3.20;99.90;;;;;;5072712;28;20485;-49
2020/12/06 09:24:25;;;;;;;14.80;8.37;;;3.40;99.90;;;;;;5057131;28;20446;-48
2020/12/06 09:26:52;;;;;;;15.70;9.63;;;3.40;99.90;;;;;;5069920;28;20943;-48
2020/12/06 09:29:18;;;;;;;14.50;9.07;;;3.50;99.90;;;;;;5071683;28;20439;-49
2020/12/06 09:31:46;;;;;;;12.60;8.50;;;3.60;99.90;;;;;;5071812;28;20867;-49
2020/12/06 09:34:13;;;;;;;10.83;7.57;;;3.60;99.90;;;;;;5070221;28;20508;-48
2020/12/06 09:36:43;;;;;;;11.43;7.47;;;3.40;99.90;;;;;;5070269;28;20439;-49
2020/12/06 09:39:10;;;;;;;11.40;7.60;;;3.40;99.90;;;;;;5071064;28;20450;-49
2020/12/06 09:41:38;;;;;;;14.90;8.73;;;3.50;99.90;;;;;;5058585;28;20449;-49
2020/12/06 09:44:07;;;;;;;14.50;8.60;;;3.40;99.90;;;;;;5052309;28;20439;-48
2020/12/06 09:46:34;;;;;;;11.47;7.90;;;3.40;99.90;;;;;;5052317;28;20444;-49
2020/12/06 09:49:01;;;;;;;13.90;8.07;;;3.30;99.90;;;;;;5053738;28;20512;-49
2020/12/06 09:51:27;;;;;;;14.83;9.07;;;3.30;99.90;;;;;;5071393;28;20451;-48
2020/12/06 09:53:54;;;;;;;15.23;8.40;;;3.20;99.90;;;;;;5054979;28;21022;-49
2020/12/06 09:56:26;;;;;;;10.60;7.23;;;3.30;99.90;;;;;;5058337;28;20451;-49
2020/12/06 09:58:52;;;;;;;14.33;7.37;;;3.40;99.90;;;;;;5052556;28;20952;-49
2020/12/06 10:01:19;;;;;;;12.97;8.90;;;3.30;99.90;;;;;;5053152;28;20483;-49
2020/12/06 10:03:46;;;;;;;12.90;8.20;;;3.20;99.90;;;;;;5052253;28;20489;-49
2020/12/06 10:06:13;;;;;;;15.90;8.73;;;3.40;99.90;;;;;;5052119;28;20436;-49
2020/12/06 10:08:40;;;;;;;12.13;8.50;;;3.50;99.90;;;;;;5051987;28;20493;-49
2020/12/06 10:11:06;;;;;;;11.73;7.67;;;3.40;99.90;;;;;;5051943;28;20468;-49
2020/12/06 10:13:33;;;;;;;9.97;6.97;;;3.50;99.90;;;;;;5055202;28;20472;-49
2020/12/06 10:15:59;;;;;;;12.60;8.27;;;3.60;99.90;;;;;;5071344;28;20474;-49
2020/12/06 10:18:26;;;;;;;11.90;8.73;;;3.40;99.90;;;;;;5062314;28;20867;-49
2020/12/06 10:20:52;;;;;;;13.50;8.23;;;3.50;99.90;;;;;;5054147;28;20512;-49
2020/12/06 10:23:19;;;;;;;13.47;8.13;;;3.50;99.90;;;;;;5071483;28;20450;-49
2020/12/06 10:25:46;;;;;;;11.70;8.17;;;3.40;99.90;;;;;;5070959;28;20432;-48
2020/12/06 10:28:12;;;;;;;12.37;7.73;;;3.30;99.90;;;;;;5071173;28;20434;-49
2020/12/06 10:30:39;;;;;;;14.80;8.30;;;3.40;99.90;;;;;;5060599;28;20459;-48
2020/12/06 10:33:05;;;;;;;13.40;8.50;;;3.40;99.90;;;;;;5055364;28;20528;-50
2020/12/06 10:35:32;;;;;;;12.27;9.03;;;3.40;99.90;;;;;;5051974;28;20431;-49
2020/12/06 10:37:58;;;;;;;11.60;8.00;;;3.50;99.90;;;;;;5063345;28;20512;-49
2020/12/06 10:40:26;;;;;;;12.97;8.70;;;3.60;99.90;;;;;;5067622;28;20488;-49
2020/12/06 10:42:52;;;;;;;13.50;8.30;;;3.70;99.90;;;;;;5070601;28;20482;-48
2020/12/06 10:45:19;;;;;;;11.40;7.30;;;3.50;99.90;;;;;;5066215;28;20466;-49
2020/12/06 10:47:45;;;;;;;10.33;7.00;;;3.40;99.90;;;;;;5060483;28;20440;-49
2020/12/06 10:50:12;;;;;;;11.37;7.30;;;3.40;99.90;;;;;;5062018;28;20931;-49
2020/12/06 10:52:39;;;;;;;15.13;7.90;;;3.50;99.90;;;;;;5052719;28;20806;-50
2020/12/06 10:55:05;;;;;;;14.07;7.97;;;3.50;99.90;;;;;;5056892;28;20867;-49
2020/12/06 10:57:32;;;;;;;12.37;7.53;;;3.60;99.90;;;;;;5067605;28;20446;-48
2020/12/06 10:59:59;;;;;;;10.53;7.10;;;3.80;99.90;;;;;;5070519;28;20472;-49
2020/12/06 11:02:25;;;;;;;13.30;8.03;;;3.80;99.90;;;;;;5052980;28;20491;-49
2020/12/06 11:04:52;;;;;;;12.60;7.60;;;3.70;99.90;;;;;;5066888;28;20451;-48
2020/12/06 11:07:19;;;;;;;12.40;7.43;;;3.90;99.90;;;;;;5070158;28;20534;-49
2020/12/06 11:09:45;;;;;;;9.63;7.00;;;3.90;99.90;;;;;;5064313;28;20870;-49
2020/12/06 11:12:12;;;;;;;10.13;6.67;;;4.00;99.90;;;;;;5063562;28;20447;-49
2020/12/06 11:14:39;;;;;;;8.90;6.17;;;4.00;99.90;;;;;;5070059;28;20465;-49
2020/12/06 11:17:06;;;;;;;9.70;6.20;;;4.00;99.90;;;;;;5062964;28;20471;-49
2020/12/06 11:19:33;;;;;;;9.33;6.13;;;3.90;99.90;;;;;;5051165;28;20494;-49
2020/12/06 11:21:59;;;;;;;12.07;7.93;;;4.00;99.90;;;;;;5051074;28;20487;-49
2020/12/06 11:24:26;;;;;;;10.17;6.73;;;3.90;99.90;;;;;;5067947;28;20459;-49
2020/12/06 11:26:52;;;;;;;13.17;7.07;;;4.00;99.90;;;;;;5070358;28;20468;-49
2020/12/06 11:29:19;;;;;;;10.90;7.37;;;3.90;99.90;;;;;;5070365;28;20451;-49
2020/12/06 11:31:48;;;;;;;11.43;7.33;;;3.90;99.90;;;;;;5070210;28;20892;-49
2020/12/06 11:34:14;;;;;;;9.30;5.83;;;3.70;99.90;;;;;;5069858;28;20455;-49
2020/12/06 11:36:41;;;;;;;11.40;6.90;;;3.60;99.90;;;;;;5070285;28;20451;-49
2020/12/06 11:39:07;;;;;;;9.00;6.70;;;3.50;99.90;;;;;;5070254;28;20446;-49
2020/12/06 11:41:34;;;;;;;11.80;7.67;;;3.60;99.90;;;;;;5067052;28;20494;-49
2020/12/06 11:44:02;;;;;;;14.07;8.20;;;3.60;99.90;;;;;;5070205;28;20496;-49
2020/12/06 11:46:29;;;;;;;13.33;8.17;;;3.70;99.90;;;;;;5070313;28;20819;-49
2020/12/06 11:48:59;;;;;;;15.03;9.00;;;3.80;99.90;;;;;;5070723;28;20454;-49
2020/12/06 11:51:25;;;;;;;15.20;8.53;;;3.70;99.90;;;;;;5070619;28;20482;-49
2020/12/06 11:53:52;;;;;;;13.93;7.90;;;3.70;99.90;;;;;;5069518;28;20448;-49
2020/12/06 11:56:18;;;;;;;13.20;8.67;;;3.50;99.90;;;;;;5070525;28;20447;-49
2020/12/06 11:58:45;;;;;;;14.07;8.07;;;3.50;99.90;;;;;;5070363;28;20450;-48
2020/12/06 12:01:12;;;;;;;15.63;9.73;;;3.50;99.90;;;;;;5067669;28;20504;-49
2020/12/06 12:03:40;;;;;;;13.13;7.87;;;3.50;99.90;;;;;;5063125;28;20447;-49
2020/12/06 12:06:07;;;;;;;15.07;8.77;;;3.50;99.90;;;;;;5070380;28;20442;-48
2020/12/06 12:08:34;;;;;;;8.53;6.30;;;3.50;99.90;;;;;;5070001;28;20447;-49
2020/12/06 12:11:01;;;;;;;10.93;6.63;;;3.60;99.90;;;;;;5067166;28;20828;-48
2020/12/06 12:13:27;;;;;;;10.07;6.43;;;3.50;99.90;;;;;;5069867;28;20459;-49
2020/12/06 12:15:54;;;;;;;7.90;5.50;;;3.50;99.90;;;;;;5068333;28;21118;-49
2020/12/06 12:18:20;;;;;;;8.10;5.97;;;3.60;99.90;;;;;;5064052;28;20529;-49
2020/12/06 12:20:49;;;;;;;10.20;6.57;;;3.50;99.90;;;;;;5069879;28;20467;-49
2020/12/06 12:23:17;;;;;;;7.50;5.23;;;3.60;99.90;;;;;;5065828;28;20450;-48
2020/12/06 12:25:44;;;;;;;7.73;5.23;;;3.50;99.90;;;;;;5070538;28;20451;-49
2020/12/06 12:28:11;;;;;;;6.63;4.57;;;3.40;99.90;;;;;;5070213;28;20936;-48
2020/12/06 12:30:37;;;;;;;8.90;5.70;;;3.40;99.90;;;;;;5057533;28;20468;-49
2020/12/06 12:33:04;;;;;;;8.17;5.37;;;3.50;99.90;;;;;;5069920;28;20512;-49
2020/12/06 12:35:30;;;;;;;8.20;5.97;;;3.50;99.90;;;;;;5057984;28;20444;-48
2020/12/06 12:37:57;;;;;;;8.77;5.60;;;3.50;99.90;;;;;;5050868;28;20497;-49
2020/12/06 12:40:24;;;;;;;9.23;5.83;;;3.60;99.90;;;;;;5069079;28;20528;-49
2020/12/06 12:42:51;;;;;;;9.27;5.93;;;3.60;99.90;;;;;;5069166;28;20482;-49
2020/12/06 12:45:19;;;;;;;9.87;6.80;;;3.60;99.90;;;;;;5069817;28;20492;-49